Time;durP1;ratioP1;P1;durP2;ratioP2;P2;SDS_P1;SDS_P2;PMS_P1;PMS_P2;Temp;Humidity;BMP_temperature;BMP_pressure;BME280_temperature;BME280_humidity;BME280_pressure;Samples;Min_cycle;Max_cycle;Signal;HPM_P1;HPM_P2
2022/09/26 00:03:28;;;;;;;17.42;11.82;;;;;;;7.84;100.00;100790.50;10360358;28;20046;-81
2022/09/26 00:08:31;;;;;;;17.55;9.98;;;;;;;7.92;100.00;100786.63;10364949;28;20462;-80
2022/09/26 00:13:35;;;;;;;;;;;;;;;7.94;100.00;100782.41;10362646;28;20049;-80
2022/09/26 00:18:39;;;;;;;15.52;10.20;;;;;;;8.06;100.00;100776.97;10364859;28;19927;-80
2022/09/26 00:23:41;;;;;;;17.80;9.80;;;;;;;8.09;100.00;100771.94;10346599;28;20038;-80
2022/09/26 00:28:43;;;;;;;15.55;11.10;;;;;;;8.13;100.00;100763.47;10362739;28;20488;-78
2022/09/26 00:33:44;;;;;;;14.65;9.57;;;;;;;8.31;100.00;100752.28;10363206;28;20038;-80
2022/09/26 00:38:48;;;;;;;12.35;8.23;;;;;;;8.35;100.00;100733.38;10362020;28;20042;-79
2022/09/26 00:43:56;;;;;;;13.25;9.20;;;;;;;8.36;100.00;100720.44;10364288;28;20042;-79
2022/09/26 00:49:25;;;;;;;13.95;9.45;;;;;;;8.36;100.00;100724.72;10362975;28;20049;-80
2022/09/26 00:54:27;;;;;;;13.85;9.07;;;;;;;8.38;100.00;100716.19;10362899;28;20184;-80
2022/09/26 00:59:31;;;;;;;12.83;8.03;;;;;;;8.43;100.00;100706.00;10345925;28;20045;-81
2022/09/26 01:04:43;;;;;;;13.57;7.47;;;;;;;8.58;100.00;100702.44;10361551;28;20042;-79
2022/09/26 01:09:44;;;;;;;22.73;8.80;;;;;;;8.67;100.00;100697.72;10364278;28;20121;-79
2022/09/26 01:14:45;;;;;;;9.18;6.47;;;;;;;8.76;100.00;100695.59;10361621;28;20109;-80
2022/09/26 01:19:53;;;;;;;11.13;6.60;;;;;;;8.85;100.00;100682.13;10344797;28;20061;-79
2022/09/26 01:25:15;;;;;;;12.63;7.78;;;;;;;8.91;100.00;100678.94;10361267;28;20085;-80
2022/09/26 01:30:25;;;;;;;6.75;4.70;;;;;;;8.97;100.00;100668.81;10363124;28;20133;-79
2022/09/26 01:35:36;;;;;;;14.60;8.20;;;;;;;8.94;100.00;100664.34;10359925;28;20064;-81
2022/09/26 01:40:41;;;;;;;13.77;6.15;;;;;;;8.96;100.00;100659.19;10360509;28;20565;-81
2022/09/26 01:45:53;;;;;;;13.60;6.53;;;;;;;9.05;100.00;100653.53;10360690;28;20068;-80
2022/09/26 01:51:01;;;;;;;10.07;5.90;;;;;;;9.08;100.00;100638.91;10337546;28;20046;-81
2022/09/26 01:56:29;;;;;;;9.75;6.32;;;;;;;9.06;100.00;100627.50;10343519;28;20033;-81
2022/09/26 02:01:35;;;;;;;10.65;6.25;;;;;;;9.09;100.00;100614.59;10359578;28;20140;-81
2022/09/26 02:06:51;;;;;;;10.88;7.32;;;;;;;9.20;100.00;100609.00;10360321;28;20050;-81
2022/09/26 02:11:55;;;;;;;8.57;6.43;;;;;;;9.22;100.00;100589.09;10359010;28;20042;-81
2022/09/26 02:17:00;;;;;;;10.68;7.43;;;;;;;9.24;100.00;100577.91;10343286;28;20413;-81
2022/09/26 02:22:00;;;;;;;10.95;7.05;;;;;;;9.22;100.00;100571.72;10335477;28;20061;-81
2022/09/26 02:27:02;;;;;;;9.35;6.10;;;;;;;9.17;100.00;100556.63;10359017;28;20034;-82
2022/09/26 02:32:11;;;;;;;;;;;;;;;9.09;100.00;100545.84;10359499;28;20038;-81
2022/09/26 02:37:13;;;;;;;9.18;6.30;;;;;;;8.95;100.00;100533.00;10357379;28;19921;-81
2022/09/26 02:42:43;;;;;;;12.50;5.93;;;;;;;8.93;100.00;100537.25;10358272;28;20093;-82
2022/09/26 02:48:11;;;;;;;11.98;6.68;;;;;;;8.84;100.00;100512.41;10343576;28;20397;-81
2022/09/26 02:53:22;;;;;;;17.05;6.43;;;;;;;8.65;100.00;100501.97;10358326;28;20124;-81
2022/09/26 02:58:53;;;;;;;14.50;7.78;;;;;;;8.56;100.00;100501.53;10358466;28;20397;-81
2022/09/26 03:04:26;;;;;;;19.77;5.80;;;;;;;8.57;100.00;100495.50;10346630;28;20042;-81
2022/09/26 03:09:28;;;;;;;8.50;5.75;;;;;;;8.52;100.00;100478.72;10358455;28;20030;-81
2022/09/26 03:14:29;;;;;;;10.10;4.97;;;;;;;8.49;100.00;100473.34;10358202;28;20041;-82
2022/09/26 03:19:42;;;;;;;23.73;6.80;;;;;;;8.56;100.00;100454.56;10340695;28;20285;-81
2022/09/26 03:24:43;;;;;;;10.85;5.75;;;;;;;8.65;100.00;100451.50;10326099;28;20046;-82
2022/09/26 03:29:47;;;;;;;10.07;4.82;;;;;;;8.71;100.00;100448.31;10357435;28;20038;-81
2022/09/26 03:34:54;;;;;;;9.38;5.38;;;;;;;8.77;100.00;100449.47;10356534;28;20501;-81
2022/09/26 03:39:57;;;;;;;8.75;4.80;;;;;;;8.75;100.00;100445.03;10361522;28;20414;-81
2022/09/26 03:45:04;;;;;;;8.82;4.68;;;;;;;8.76;100.00;100433.78;10367167;28;20041;-81
2022/09/26 03:50:07;;;;;;;11.55;6.35;;;;;;;8.84;100.00;100431.50;10364425;28;20037;-82
2022/09/26 03:55:12;;;;;;;14.55;6.05;;;;;;;9.01;100.00;100421.88;10348043;28;20038;-82
2022/09/26 04:00:14;;;;;;;11.23;5.07;;;;;;;9.00;100.00;100418.38;10364025;28;20422;-83
2022/09/26 04:05:15;;;;;;;8.47;5.03;;;;;;;8.98;100.00;100411.31;10364805;28;20734;-82
2022/09/26 04:10:17;;;;;;;14.23;4.72;;;;;;;8.93;100.00;100392.81;10365925;28;20033;-82
2022/09/26 04:15:19;;;;;;;9.50;5.00;;;;;;;8.87;100.00;100388.22;10363748;28;20501;-82
2022/09/26 04:20:26;;;;;;;10.93;5.80;;;;;;;8.81;100.00;100374.88;10366542;28;20164;-83
2022/09/26 04:25:28;;;;;;;14.10;5.50;;;;;;;8.89;100.00;100362.16;10363804;28;20092;-82
2022/09/26 04:30:35;;;;;;;14.45;4.47;;;;;;;8.89;100.00;100351.72;10364170;28;20058;-82
2022/09/26 04:35:39;;;;;;;11.57;5.65;;;;;;;8.95;100.00;100331.13;10362281;28;20049;-81
2022/09/26 04:40:47;;;;;;;19.88;6.53;;;;;;;8.95;100.00;100320.69;10359380;28;20049;-78
2022/09/26 04:45:48;;;;;;;10.68;4.80;;;;;;;8.96;100.00;100314.63;10361701;28;20049;-79
2022/09/26 04:50:48;;;;;;;12.93;4.70;;;;;;;9.03;99.88;100308.88;10361285;28;20042;-79
2022/09/26 04:55:53;;;;;;;13.27;5.68;;;;;;;9.07;98.63;100302.97;10360393;28;20046;-78
2022/09/26 05:00:53;;;;;;;9.45;4.03;;;;;;;9.10;98.55;100299.63;10352920;28;20134;-80
2022/09/26 05:05:54;;;;;;;9.88;5.35;;;;;;;9.01;99.20;100281.81;10359025;28;20052;-79
2022/09/26 05:11:03;;;;;;;26.05;10.38;;;;;;;9.09;100.00;100280.44;10356062;28;20038;-78
2022/09/26 05:16:10;;;;;;;10.38;5.40;;;;;;;9.06;99.63;100271.59;10342265;28;20073;-78
2022/09/26 05:21:22;;;;;;;8.82;5.00;;;;;;;9.06;100.00;100263.75;10360844;28;20116;-80
2022/09/26 05:26:39;;;;;;;10.93;5.07;;;;;;;8.98;100.00;100259.91;10358832;28;20041;-78
2022/09/26 05:31:45;;;;;;;7.97;4.32;;;;;;;8.93;100.00;100246.66;10342148;28;20405;-79
2022/09/26 05:36:47;;;;;;;6.53;3.47;;;;;;;8.96;100.00;100241.56;10342527;28;20042;-79
2022/09/26 05:41:52;;;;;;;8.68;6.70;;;;;;;8.91;100.00;100216.97;10344055;28;20038;-81
2022/09/26 05:46:53;;;;;;;9.57;3.33;;;;;;;8.92;100.00;100226.59;10328485;28;20498;-79
2022/09/26 05:51:56;;;;;;;7.60;3.13;;;;;;;9.01;100.00;100207.84;10359709;28;20045;-78
2022/09/26 05:56:59;;;;;;;6.78;2.92;;;;;;;9.14;99.31;100201.41;10358745;28;20054;-79
2022/09/26 06:02:05;;;;;;;7.07;3.80;;;;;;;9.23;99.01;100196.59;10359155;28;20125;-80
2022/09/26 06:07:12;;;;;;;6.15;2.50;;;;;;;9.23;99.11;100187.06;10357623;28;20038;-80
2022/09/26 06:12:18;;;;;;;6.57;2.22;;;;;;;9.27;98.25;100177.63;10325479;28;20401;-80
2022/09/26 06:17:20;;;;;;;5.65;2.75;;;;;;;9.37;97.50;100165.84;10359655;28;20053;-82
2022/09/26 06:22:25;;;;;;;7.20;4.15;;;;;;;9.48;98.05;100161.03;10357816;28;20045;-82
2022/09/26 06:27:26;;;;;;;;;;;;;;;9.45;98.06;100155.69;10357785;28;20045;-81
2022/09/26 06:32:36;;;;;;;8.25;3.75;;;;;;;9.40;99.47;100137.25;10350921;28;20300;-83
2022/09/26 06:37:40;;;;;;;10.50;3.92;;;;;;;9.35;100.00;100134.44;10358051;28;20516;-84
2022/09/26 06:42:42;;;;;;;4.47;2.55;;;;;;;9.28;100.00;100132.41;10357942;28;20540;-84
2022/09/26 06:47:51;;;;;;;8.52;2.10;;;;;;;9.29;100.00;100128.06;10357413;28;20129;-81
2022/09/26 06:52:56;;;;;;;4.68;2.38;;;;;;;9.34;100.00;100127.41;10343636;28;20552;-79
2022/09/26 06:58:06;;;;;;;4.80;2.50;;;;;;;9.39;100.00;100117.19;10357296;28;20041;-79
2022/09/26 07:03:07;;;;;;;4.75;2.42;;;;;;;9.46;99.96;100102.63;10360180;28;20065;-80
2022/09/26 07:08:09;;;;;;;7.77;3.10;;;;;;;9.40;99.69;100093.72;10357513;28;20038;-80
2022/09/26 07:13:16;;;;;;;9.05;4.90;;;;;;;9.51;97.28;100085.41;10361415;28;20045;-79
2022/09/26 07:18:19;;;;;;;7.40;1.80;;;;;;;9.57;96.50;100069.97;10325386;28;20606;-81
2022/09/26 07:23:19;;;;;;;2.70;1.60;;;;;;;9.57;96.31;100059.53;10349533;28;20038;-80
2022/09/26 07:28:20;;;;;;;4.72;1.67;;;;;;;9.57;97.96;100051.69;10363597;28;20133;-81
2022/09/26 07:33:20;;;;;;;9.88;5.85;;;;;;;9.62;99.67;100037.09;10364052;28;20128;-79
2022/09/26 07:38:21;;;;;;;6.35;2.30;;;;;;;9.80;99.77;100036.91;10347721;28;20064;-80
2022/09/26 07:43:22;;;;;;;4.93;2.00;;;;;;;10.02;97.91;100037.69;10363540;28;20030;-80
2022/09/26 07:53:42;;;;;;;8.98;3.63;;;;;;;10.10;97.06;100033.66;10364143;28;20120;-83
2022/09/26 07:58:42;;;;;;;3.90;2.35;;;;;;;10.12;96.34;100037.19;10366424;28;20038;-83
2022/09/26 08:03:44;;;;;;;6.65;2.47;;;;;;;10.13;97.31;100019.78;10364989;28;20045;-83
2022/09/26 08:08:47;;;;;;;12.45;2.72;;;;;;;10.24;96.26;100025.41;10355624;28;20052;-85
2022/09/26 08:13:48;;;;;;;4.88;1.80;;;;;;;10.26;96.56;100003.69;10310792;28;20046;-83
2022/09/26 08:18:49;;;;;;;8.25;3.17;;;;;;;10.17;95.32;100007.72;10345616;28;20041;-84
2022/09/26 08:23:52;;;;;;;5.20;2.35;;;;;;;10.06;98.25;100002.09;10343907;28;20064;-83
2022/09/26 08:28:57;;;;;;;3.25;1.50;;;;;;;9.97;100.00;99973.91;10360761;28;20068;-81
2022/09/26 08:33:58;;;;;;;2.45;1.40;;;;;;;9.88;100.00;99974.44;10361607;28;20053;-85
2022/09/26 08:38:58;;;;;;;6.40;2.20;;;;;;;9.88;100.00;99981.41;10362696;28;20150;-80
2022/09/26 08:44:21;;;;;;;5.28;2.08;;;;;;;9.99;100.00;99986.19;10361527;28;20156;-82
2022/09/26 08:49:38;;;;;;;9.55;3.25;;;;;;;10.39;99.94;99981.50;10361959;28;20045;-80
2022/09/26 08:54:40;;;;;;;5.60;2.70;;;;;;;10.86;99.51;99975.19;10360037;28;20057;-80
2022/09/26 08:59:42;;;;;;;9.70;3.95;;;;;;;10.97;93.52;99968.56;10362871;28;20038;-81
2022/09/26 09:05:02;;;;;;;11.30;4.90;;;;;;;11.06;92.93;99954.84;10354419;28;20066;-83
2022/09/26 09:10:14;;;;;;;8.45;2.10;;;;;;;11.21;91.48;99948.31;10360829;28;20591;-80
2022/09/26 09:15:37;;;;;;;5.60;3.25;;;;;;;11.30;91.34;99944.25;10360851;28;20028;-83
2022/09/26 09:20:49;;;;;;;3.55;2.30;;;;;;;11.40;91.90;99926.19;10358008;28;20124;-78
2022/09/26 09:26:05;;;;;;;6.05;2.58;;;;;;;11.66;89.04;99918.19;10358370;28;20053;-82
2022/09/26 09:31:07;;;;;;;3.90;1.80;;;;;;;11.80;88.65;99918.53;10353769;28;20046;-82
2022/09/26 09:36:12;;;;;;;3.78;2.40;;;;;;;12.14;86.70;99916.84;10343049;28;20044;-81
2022/09/26 09:41:25;;;;;;;2.35;1.80;;;;;;;12.18;86.04;99902.97;10343006;28;20502;-81
2022/09/26 09:46:27;;;;;;;8.50;1.50;;;;;;;12.00;86.64;99887.66;10360528;28;20370;-80
2022/09/26 09:51:37;;;;;;;3.83;1.55;;;;;;;11.98;87.04;99898.06;10360562;28;20092;-82
2022/09/26 09:56:50;;;;;;;22.40;12.38;;;;;;;12.33;85.22;99895.50;10358989;28;20046;-81
2022/09/26 10:02:11;;;;;;;5.15;1.73;;;;;;;12.67;84.51;99886.66;10360724;28;20137;-81
2022/09/26 10:07:11;;;;;;;5.18;1.55;;;;;;;13.21;81.52;99864.22;10346070;28;20030;-80
2022/09/26 10:12:19;;;;;;;8.15;3.17;;;;;;;13.68;77.45;99865.16;10360282;28;20065;-82
2022/09/26 10:17:21;;;;;;;6.18;2.08;;;;;;;13.53;79.79;99840.38;10348833;28;20128;-80
2022/09/26 10:22:25;;;;;;;12.47;6.43;;;;;;;13.35;80.66;99830.31;10351719;28;20042;-81
2022/09/26 10:27:36;;;;;;;2.88;1.60;;;;;;;13.07;82.10;99824.50;10354108;28;20042;-80
2022/09/26 10:32:48;;;;;;;2.83;1.70;;;;;;;13.14;82.78;99817.66;10341465;28;20046;-81
2022/09/26 10:38:02;;;;;;;4.32;1.77;;;;;;;13.14;81.80;99813.28;10340217;28;20034;-81
2022/09/26 10:43:23;;;;;;;3.47;1.23;;;;;;;13.31;80.86;99802.22;10359486;28;20068;-79
2022/09/26 10:48:42;;;;;;;10.43;3.65;;;;;;;13.33;80.71;99797.88;10358640;28;20417;-81
2022/09/26 10:53:43;;;;;;;8.95;2.45;;;;;;;13.36;80.32;99777.81;10342963;28;20068;-82
2022/09/26 10:58:44;;;;;;;1.92;1.20;;;;;;;13.30;81.66;99772.44;10358196;28;20052;-82
2022/09/26 11:03:46;;;;;;;3.65;1.23;;;;;;;13.43;79.69;99775.34;10341989;28;20565;-83
2022/09/26 11:08:52;;;;;;;5.20;2.65;;;;;;;13.10;80.47;99764.16;10358975;28;20098;-80
2022/09/26 11:14:02;;;;;;;7.50;1.50;;;;;;;12.15;85.42;99772.66;10358124;28;20066;-82
2022/09/26 11:19:27;;;;;;;5.65;1.77;;;;;;;11.92;89.67;99761.56;10349563;28;20056;-82
2022/09/26 11:24:45;;;;;;;9.25;2.08;;;;;;;11.84;92.49;99756.16;10352137;28;20042;-78
2022/09/26 11:29:54;;;;;;;3.90;1.95;;;;;;;11.95;92.72;99748.53;10358426;28;20050;-82
2022/09/26 11:35:01;;;;;;;8.00;1.58;;;;;;;12.16;90.27;99732.47;10357205;28;20177;-81
2022/09/26 11:40:13;;;;;;;3.85;1.35;;;;;;;12.31;91.39;99726.66;10357146;28;20034;-80
2022/09/26 11:45:51;;;;;;;6.55;1.73;;;;;;;12.41;89.23;99732.09;10350341;28;20064;-83
2022/09/26 11:51:01;;;;;;;5.47;2.70;;;;;;;12.20;89.55;99728.16;10356533;28;20073;-83
2022/09/26 11:56:39;;;;;;;6.78;2.78;;;;;;;12.05;88.56;99728.69;10351314;28;20393;-79
2022/09/26 12:02:11;;;;;;;3.28;1.55;;;;;;;11.92;86.64;99718.75;10323892;28;20453;-80
2022/09/26 12:07:18;;;;;;;4.15;1.92;;;;;;;11.79;89.63;99717.53;10339542;28;20053;-81
2022/09/26 12:12:30;;;;;;;4.18;2.13;;;;;;;11.50;91.01;99707.22;10364469;28;20040;-81
2022/09/26 12:17:48;;;;;;;2.37;1.50;;;;;;;11.34;94.78;99698.09;10366224;28;20037;-81
2022/09/26 12:22:59;;;;;;;4.13;1.88;;;;;;;11.28;96.28;99685.72;10361403;28;20042;-80
2022/09/26 12:28:04;;;;;;;6.20;2.30;;;;;;;11.04;95.99;99675.50;10356540;28;20096;-81
2022/09/26 12:33:43;;;;;;;5.70;2.50;;;;;;;11.09;99.42;99664.28;10358028;28;20042;-81
2022/09/26 12:38:50;;;;;;;4.20;2.15;;;;;;;11.25;99.25;99659.44;10356933;28;20066;-82
2022/09/26 12:44:06;;;;;;;5.78;2.45;;;;;;;11.31;99.79;99650.03;10357981;28;20069;-82
2022/09/26 12:49:11;;;;;;;3.70;2.17;;;;;;;11.48;97.46;99643.41;10355439;28;20083;-83
2022/09/26 12:54:32;;;;;;;5.60;2.28;;;;;;;11.78;95.29;99634.50;10351844;28;20129;-81
2022/09/26 12:59:44;;;;;;;5.22;2.22;;;;;;;11.78;95.90;99631.88;10359470;28;20042;-80
2022/09/26 13:05:05;;;;;;;4.70;2.33;;;;;;;11.63;96.59;99629.81;10360138;28;20057;-84
2022/09/26 13:10:14;;;;;;;6.65;2.47;;;;;;;11.48;97.83;99639.06;10355357;28;20478;-80
2022/09/26 13:15:21;;;;;;;5.40;2.53;;;;;;;11.21;99.49;99627.06;10359209;28;20054;-80
2022/09/26 13:20:35;;;;;;;2.92;2.22;;;;;;;11.15;100.00;99630.41;10360519;28;20046;-80
2022/09/26 13:25:49;;;;;;;6.50;2.35;;;;;;;11.11;100.00;99617.22;10361356;28;20038;-80
2022/09/26 13:31:02;;;;;;;7.07;2.40;;;;;;;10.94;100.00;99614.16;10344774;28;20065;-80
2022/09/26 13:36:03;;;;;;;5.28;2.03;;;;;;;10.80;100.00;99619.91;10344909;28;20557;-81
2022/09/26 13:42:08;;;;;;;6.20;2.67;;;;;;;10.71;100.00;99609.19;10342378;28;20045;-83
2022/09/26 13:47:48;;;;;;;11.07;2.90;;;;;;;10.73;100.00;99607.50;10306885;28;20061;-81
2022/09/26 13:53:20;;;;;;;4.43;2.70;;;;;;;10.77;100.00;99601.50;10316609;28;20505;-82
2022/09/26 13:58:25;;;;;;;6.45;3.17;;;;;;;10.77;100.00;99593.66;10361112;28;20038;-80
2022/09/26 14:03:26;;;;;;;6.18;3.30;;;;;;;10.78;100.00;99592.81;10362642;28;21610;-83
2022/09/26 14:14:17;;;;;;;9.98;4.15;;;;;;;10.91;100.00;99580.94;10281297;28;20042;-81
2022/09/26 14:19:19;;;;;;;7.70;3.03;;;;;;;10.80;100.00;99571.91;10320434;28;20114;-81
2022/09/26 14:24:19;;;;;;;;;;;;;;;10.72;100.00;99570.00;10346302;28;20046;-82
2022/09/26 14:29:26;;;;;;;7.05;3.70;;;;;;;10.71;100.00;99564.69;10359745;28;19924;-82
2022/09/26 14:34:29;;;;;;;5.68;4.30;;;;;;;10.74;100.00;99546.47;10357994;28;20054;-81
2022/09/26 14:39:37;;;;;;;14.52;4.70;;;;;;;10.68;100.00;99547.19;10357650;28;20552;-83
2022/09/26 14:44:38;;;;;;;4.60;2.78;;;;;;;10.72;100.00;99543.81;10358820;28;20052;-82
2022/09/26 14:49:38;;;;;;;7.35;2.40;;;;;;;10.81;100.00;99531.81;10342499;28;20053;-84
2022/09/26 14:54:39;;;;;;;5.00;2.05;;;;;;;10.84;100.00;99529.28;10359353;28;20464;-87
2022/09/26 14:59:40;;;;;;;7.45;2.00;;;;;;;10.78;100.00;99510.81;10359255;28;20041;-84
2022/09/26 15:04:41;;;;;;;7.60;2.60;;;;;;;10.80;100.00;99515.22;10340124;28;20494;-78
2022/09/26 15:09:48;;;;;;;4.65;2.42;;;;;;;10.71;100.00;99504.50;10340004;28;20042;-76
2022/09/26 15:14:54;;;;;;;5.53;2.80;;;;;;;10.69;100.00;99493.13;10328127;28;20070;-78
2022/09/26 15:19:55;;;;;;;5.93;2.78;;;;;;;10.63;100.00;99499.09;10339088;28;20038;-78
2022/09/26 15:25:22;;;;;;;2.65;1.85;;;;;;;10.53;100.00;99503.19;10339189;28;20038;-78
2022/09/26 15:30:26;;;;;;;2.95;1.63;;;;;;;10.51;100.00;99493.56;10356433;28;20494;-78
2022/09/26 15:35:26;;;;;;;3.38;2.00;;;;;;;10.36;100.00;99487.03;10348726;28;20038;-79
2022/09/26 15:40:28;;;;;;;5.18;2.80;;;;;;;10.26;100.00;99487.66;10366160;28;20030;-78
2022/09/26 15:45:52;;;;;;;3.20;2.13;;;;;;;10.22;100.00;99468.34;10361987;28;20042;-78
2022/09/26 15:50:58;;;;;;;10.55;7.10;;;;;;;10.14;100.00;99481.25;10361459;28;20141;-82
2022/09/26 15:55:59;;;;;;;5.32;3.28;;;;;;;10.07;100.00;99468.84;10364107;28;20490;-82
2022/09/26 16:00:59;;;;;;;8.27;2.53;;;;;;;9.99;100.00;99462.53;10364466;28;20050;-79
2022/09/26 16:06:00;;;;;;;8.88;2.70;;;;;;;9.88;100.00;99470.06;10345447;28;20125;-83
2022/09/26 16:11:00;;;;;;;4.53;3.08;;;;;;;9.83;100.00;99446.41;10349526;28;20039;-82
2022/09/26 16:16:02;;;;;;;4.82;2.40;;;;;;;9.82;100.00;99451.59;10319119;28;20068;-80
2022/09/26 16:21:24;;;;;;;5.73;3.03;;;;;;;9.74;100.00;99448.78;10347294;28;20038;-80
2022/09/26 16:26:35;;;;;;;8.20;2.97;;;;;;;9.69;100.00;99437.31;10359094;28;20033;-80
2022/09/26 16:31:45;;;;;;;5.65;3.17;;;;;;;9.59;100.00;99436.16;10353704;28;20045;-80
2022/09/26 16:36:46;;;;;;;6.60;2.58;;;;;;;9.50;100.00;99434.16;10364151;28;20038;-79
2022/09/26 16:41:59;;;;;;;3.55;2.03;;;;;;;9.51;100.00;99429.81;10361717;28;20042;-79
2022/09/26 16:47:04;;;;;;;9.43;3.03;;;;;;;9.44;100.00;99435.72;10360975;28;20042;-79
2022/09/26 16:52:09;;;;;;;3.03;1.60;;;;;;;9.45;100.00;99437.47;10344181;28;20069;-78
2022/09/26 16:57:26;;;;;;;5.30;2.25;;;;;;;9.42;100.00;99429.56;10358843;28;20056;-79
2022/09/26 17:02:28;;;;;;;5.78;3.22;;;;;;;9.40;100.00;99424.31;10345748;28;20041;-79
2022/09/26 17:07:28;;;;;;;3.45;2.55;;;;;;;9.44;100.00;99420.94;10362173;28;20100;-79
2022/09/26 17:12:29;;;;;;;4.75;3.03;;;;;;;9.37;100.00;99422.47;10359220;28;20125;-78
2022/09/26 17:17:29;;;;;;;7.72;2.80;;;;;;;9.41;100.00;99423.47;10357791;28;20092;-80
2022/09/26 17:22:30;;;;;;;6.28;4.97;;;;;;;9.43;100.00;99419.16;10360516;28;20122;-79
2022/09/26 17:27:33;;;;;;;4.82;3.20;;;;;;;9.43;100.00;99418.25;10360116;28;20033;-78
2022/09/26 17:32:35;;;;;;;6.82;3.80;;;;;;;9.41;100.00;99407.78;10353674;28;20045;-77
2022/09/26 17:37:36;;;;;;;4.63;2.85;;;;;;;9.38;100.00;99415.53;10358782;28;20048;-77
2022/09/26 17:42:36;;;;;;;6.97;3.90;;;;;;;9.40;100.00;99416.47;10360425;28;20129;-77
2022/09/26 17:47:37;;;;;;;7.32;3.30;;;;;;;9.40;100.00;99406.88;10356167;28;20125;-78
2022/09/26 17:52:37;;;;;;;4.32;2.50;;;;;;;9.45;100.00;99419.19;10359413;28;20493;-78
2022/09/26 17:57:38;;;;;;;5.13;3.30;;;;;;;9.45;100.00;99409.66;10353969;28;20437;-78
2022/09/26 18:02:43;;;;;;;6.53;2.90;;;;;;;9.42;100.00;99420.00;10363790;28;20045;-78
2022/09/26 18:07:43;;;;;;;5.35;2.78;;;;;;;9.44;100.00;99413.09;10336676;28;20390;-77
2022/09/26 18:12:48;;;;;;;5.25;3.38;;;;;;;9.49;100.00;99421.06;10358574;28;20112;-78
2022/09/26 18:17:50;;;;;;;5.05;3.50;;;;;;;9.43;100.00;99413.94;10341738;28;20042;-79
2022/09/26 18:22:50;;;;;;;6.47;3.23;;;;;;;9.40;100.00;99417.34;10359308;28;20092;-80
2022/09/26 18:27:52;;;;;;;8.07;4.85;;;;;;;9.38;100.00;99413.78;10341249;28;20130;-77
2022/09/26 18:32:53;;;;;;;6.53;4.88;;;;;;;9.39;100.00;99402.50;10351657;28;20037;-78
2022/09/26 18:37:54;;;;;;;33.67;7.50;;;;;;;9.40;100.00;99403.41;10333873;28;20049;-78
2022/09/26 18:42:56;;;;;;;12.50;6.85;;;;;;;9.32;100.00;99408.38;10357060;28;20405;-80
2022/09/26 18:47:57;;;;;;;11.07;6.35;;;;;;;9.27;100.00;99409.13;10339423;28;20042;-80
2022/09/26 18:52:57;;;;;;;13.73;6.38;;;;;;;9.27;100.00;99414.34;10357410;28;20104;-80
2022/09/26 19:03:32;;;;;;;14.27;8.77;;;;;;;9.20;100.00;99405.41;10307795;28;20567;-80
2022/09/26 19:08:33;;;;;;;15.52;8.60;;;;;;;9.18;100.00;99400.16;10354819;28;20054;-81
2022/09/26 19:13:33;;;;;;;11.80;7.38;;;;;;;9.15;100.00;99400.06;10356370;28;20046;-78
2022/09/26 19:18:34;;;;;;;16.38;8.93;;;;;;;9.03;100.00;99402.31;10355625;28;20474;-78
2022/09/26 19:23:36;;;;;;;14.00;7.43;;;;;;;8.99;100.00;99406.53;10340275;28;20061;-80
2022/09/26 19:28:36;;;;;;;14.60;7.50;;;;;;;8.94;100.00;99402.91;10356633;28;20575;-78
2022/09/26 19:33:37;;;;;;;17.08;7.93;;;;;;;8.85;100.00;99403.53;10356906;28;20073;-79
2022/09/26 19:38:37;;;;;;;21.23;8.57;;;;;;;8.74;100.00;99402.31;10336146;28;20042;-79
2022/09/26 19:43:38;;;;;;;25.80;8.82;;;;;;;8.62;100.00;99395.88;10356057;28;20091;-79
2022/09/26 19:48:38;;;;;;;16.40;8.35;;;;;;;8.54;100.00;99404.25;10339911;28;20042;-79
2022/09/26 19:53:39;;;;;;;22.73;12.10;;;;;;;8.64;100.00;99406.31;10358440;28;20042;-79
2022/09/26 19:58:40;;;;;;;26.58;14.20;;;;;;;8.75;100.00;99397.13;10354345;28;20046;-79
2022/09/26 20:03:41;;;;;;;26.73;12.95;;;;;;;8.86;100.00;99399.19;10353980;28;20529;-80
2022/09/26 20:08:42;;;;;;;35.70;10.57;;;;;;;8.91;100.00;99403.72;10351420;28;20075;-79
2022/09/26 20:19:02;;;;;;;31.05;14.57;;;;;;;8.96;100.00;99401.22;10343891;28;20042;-80
2022/09/26 20:24:03;;;;;;;27.42;12.38;;;;;;;8.93;100.00;99396.81;10346279;28;20042;-78
2022/09/26 20:29:04;;;;;;;26.85;13.50;;;;;;;8.98;100.00;99398.69;10346258;28;20474;-79
2022/09/26 20:34:05;;;;;;;25.40;11.93;;;;;;;8.98;100.00;99407.38;10363194;28;20087;-78
2022/09/26 20:39:06;;;;;;;26.15;13.95;;;;;;;9.00;100.00;99403.09;10360515;28;20092;-77
2022/09/26 20:44:20;;;;;;;18.48;10.05;;;;;;;8.98;100.00;99396.94;10347394;28;20038;-79
2022/09/26 20:49:26;;;;;;;19.50;10.27;;;;;;;8.98;100.00;99402.16;10347277;28;20045;-80
2022/09/26 20:54:28;;;;;;;20.88;9.40;;;;;;;8.99;100.00;99401.31;10362796;28;20049;-80
2022/09/26 20:59:28;;;;;;;24.67;9.85;;;;;;;8.96;100.00;99404.75;10362432;28;20046;-80
2022/09/26 21:04:30;;;;;;;18.20;8.38;;;;;;;8.97;100.00;99403.00;10363687;28;20061;-80
2022/09/26 21:09:31;;;;;;;19.23;8.90;;;;;;;8.97;100.00;99395.19;10345055;28;20068;-80
2022/09/26 21:14:31;;;;;;;22.05;9.63;;;;;;;8.97;100.00;99400.41;10361938;28;20113;-80
2022/09/26 21:19:32;;;;;;;20.60;8.40;;;;;;;8.98;100.00;99402.16;10364204;28;20548;-79
2022/09/26 21:24:33;;;;;;;18.00;8.68;;;;;;;8.96;100.00;99396.91;10361938;28;20092;-79
2022/09/26 21:29:34;;;;;;;21.98;9.45;;;;;;;8.94;100.00;99400.31;10361859;28;20097;-77
2022/09/26 21:34:35;;;;;;;19.83;8.07;;;;;;;8.92;100.00;99394.16;10363889;28;20034;-77
2022/09/26 21:39:38;;;;;;;15.82;7.75;;;;;;;8.87;100.00;99404.47;10360633;28;20058;-77
2022/09/26 21:44:44;;;;;;;13.65;7.97;;;;;;;8.87;100.00;99406.16;10361075;28;20107;-77
2022/09/26 21:49:45;;;;;;;18.40;11.32;;;;;;;8.95;100.00;99408.19;10344352;28;20171;-76
2022/09/26 21:54:46;;;;;;;15.20;7.60;;;;;;;8.85;100.00;99416.56;10362039;28;20042;-77
2022/09/26 21:59:46;;;;;;;15.93;7.95;;;;;;;8.81;100.00;99415.56;10360394;28;20125;-77
2022/09/26 22:04:47;;;;;;;14.45;9.25;;;;;;;8.77;100.00;99421.53;10361713;28;20053;-77
2022/09/26 22:09:47;;;;;;;17.77;7.85;;;;;;;8.74;100.00;99416.22;10361675;28;20046;-78
2022/09/26 22:14:48;;;;;;;15.93;7.07;;;;;;;8.68;100.00;99421.25;10360508;28;20111;-78
2022/09/26 22:19:52;;;;;;;12.48;6.18;;;;;;;8.66;100.00;99420.31;10358691;28;20061;-79
2022/09/26 22:24:52;;;;;;;12.48;6.53;;;;;;;8.65;100.00;99424.66;10359063;28;20060;-79
2022/09/26 22:29:53;;;;;;;9.43;5.40;;;;;;;8.59;100.00;99440.09;10359698;28;20057;-79
2022/09/26 22:34:54;;;;;;;14.93;7.22;;;;;;;8.59;100.00;99436.59;10358597;28;20397;-79
2022/09/26 22:39:55;;;;;;;11.25;6.55;;;;;;;8.57;100.00;99438.25;10359513;28;20579;-79
2022/09/26 22:44:55;;;;;;;14.77;5.82;;;;;;;8.56;100.00;99439.09;10357574;28;20044;-79
2022/09/26 22:49:56;;;;;;;14.13;5.60;;;;;;;8.51;100.00;99433.75;10359427;28;20490;-80
2022/09/26 22:54:56;;;;;;;14.18;6.05;;;;;;;8.47;100.00;99426.63;10357558;28;20045;-79
2022/09/26 22:59:57;;;;;;;10.73;6.10;;;;;;;8.42;100.00;99425.59;10358941;28;20044;-78
2022/09/26 23:04:57;;;;;;;10.80;6.03;;;;;;;8.38;100.00;99432.41;10360692;28;20114;-78
2022/09/26 23:09:59;;;;;;;13.05;4.97;;;;;;;8.29;100.00;99446.03;10359601;28;20062;-78
2022/09/26 23:14:59;;;;;;;6.77;3.23;;;;;;;8.23;100.00;99446.69;10358233;28;20041;-78
2022/09/26 23:20:00;;;;;;;9.52;2.92;;;;;;;8.15;100.00;99444.66;10360859;28;20034;-77
2022/09/26 23:25:00;;;;;;;4.25;2.05;;;;;;;8.09;100.00;99442.72;10359567;28;20092;-79
2022/09/26 23:30:01;;;;;;;6.45;2.47;;;;;;;8.03;100.00;99440.81;10342107;28;20088;-78
2022/09/26 23:35:01;;;;;;;7.47;2.28;;;;;;;7.98;100.00;99444.06;10356933;28;20244;-78
2022/09/26 23:40:02;;;;;;;4.22;2.33;;;;;;;7.97;100.00;99439.69;10358568;28;20042;-78
2022/09/26 23:45:03;;;;;;;5.97;2.63;;;;;;;7.94;100.00;99438.75;10358637;28;20042;-78
2022/09/26 23:50:04;;;;;;;8.23;3.30;;;;;;;7.91;100.00;99442.97;10357363;28;20038;-78
2022/09/26 23:55:05;;;;;;;17.38;8.93;;;;;;;7.90;100.00;99439.47;10359840;28;20133;-78
